createdAt,value
2018-05-17T00:01:52.183Z,13.60
2018-05-17T00:04:19.722Z,13.60
2018-05-17T00:06:47.257Z,13.60
2018-05-17T00:09:14.828Z,13.60
2018-05-17T00:11:42.356Z,13.50
2018-05-17T00:14:09.883Z,13.50
2018-05-17T00:16:38.169Z,13.60
2018-05-17T00:19:06.460Z,13.60
2018-05-17T00:21:33.983Z,13.50
2018-05-17T00:24:01.525Z,13.60
2018-05-17T00:26:29.073Z,13.60
2018-05-17T00:28:56.627Z,13.50
2018-05-17T00:31:24.192Z,13.50
2018-05-17T00:33:51.750Z,13.50
2018-05-17T00:36:19.305Z,13.50
2018-05-17T00:38:46.855Z,13.50
2018-05-17T00:41:14.378Z,13.50
2018-05-17T00:43:41.923Z,13.50
2018-05-17T00:46:09.471Z,13.50
2018-05-17T00:48:36.987Z,13.50
2018-05-17T00:51:04.518Z,13.40
2018-05-17T00:53:32.068Z,13.50
2018-05-17T00:55:59.581Z,13.40
2018-05-17T00:58:27.126Z,13.40
2018-05-17T01:00:54.651Z,13.40
2018-05-17T01:03:22.183Z,13.60
2018-05-17T01:05:49.735Z,13.60
2018-05-17T01:08:17.284Z,13.50
2018-05-17T01:10:44.805Z,13.60
2018-05-17T01:13:12.389Z,13.50
2018-05-17T01:15:39.965Z,13.50
2018-05-17T01:18:07.516Z,13.40
2018-05-17T01:20:35.058Z,13.30
2018-05-17T01:23:02.621Z,13.40
2018-05-17T01:25:30.143Z,13.30
2018-05-17T01:27:57.669Z,13.30
2018-05-17T01:30:25.181Z,13.20
2018-05-17T01:32:53.457Z,13.40
2018-05-17T01:35:21.775Z,13.40
2018-05-17T01:38:01.045Z,13.30
2018-05-17T01:40:28.579Z,13.40
2018-05-17T01:42:56.122Z,13.40
2018-05-17T01:45:23.644Z,13.40
2018-05-17T01:47:51.951Z,13.40
2018-05-17T01:50:19.500Z,13.40
2018-05-17T01:52:47.016Z,13.40
2018-05-17T01:55:14.547Z,13.40
2018-05-17T01:57:42.086Z,13.50
2018-05-17T02:00:09.657Z,13.50
2018-05-17T02:02:37.186Z,13.50
2018-05-17T02:05:04.723Z,13.40
2018-05-17T02:07:33.039Z,13.40
2018-05-17T02:10:00.582Z,13.40
2018-05-17T02:12:28.124Z,13.40
2018-05-17T02:14:56.408Z,13.40
2018-05-17T02:17:24.713Z,13.40
2018-05-17T02:19:52.305Z,13.40
2018-05-17T02:22:19.821Z,13.40
2018-05-17T02:24:47.330Z,13.40
2018-05-17T02:27:14.892Z,13.40
2018-05-17T02:29:42.411Z,13.50
2018-05-17T02:32:09.964Z,13.50
2018-05-17T02:34:37.489Z,13.50
2018-05-17T02:37:05.787Z,13.60
2018-05-17T02:39:33.332Z,13.60
2018-05-17T02:42:00.850Z,13.60
2018-05-17T02:44:28.358Z,13.60
2018-05-17T02:46:55.899Z,13.70
2018-05-17T02:49:23.425Z,13.70
2018-05-17T02:51:50.931Z,13.60
2018-05-17T02:54:18.503Z,13.60
2018-05-17T02:56:46.012Z,13.50
2018-05-17T02:59:13.521Z,13.40
2018-05-17T03:01:41.038Z,13.50
2018-05-17T03:04:08.592Z,13.50
2018-05-17T03:06:36.914Z,13.60
2018-05-17T03:09:06.363Z,13.60
2018-05-17T03:11:33.908Z,13.60
2018-05-17T03:14:01.418Z,13.60
2018-05-17T03:16:28.963Z,13.60
2018-05-17T03:18:56.499Z,13.50
2018-05-17T03:21:24.043Z,13.50
2018-05-17T03:23:51.570Z,13.50
2018-05-17T03:26:19.104Z,13.50
2018-05-17T03:28:46.657Z,13.40
2018-05-17T03:31:14.986Z,13.40
2018-05-17T03:33:42.539Z,13.40
2018-05-17T03:36:10.840Z,13.40
2018-05-17T03:38:38.385Z,13.40
2018-05-17T03:41:05.931Z,13.40
2018-05-17T03:43:33.489Z,13.40
2018-05-17T03:46:01.011Z,13.40
2018-05-17T03:48:29.319Z,13.40
2018-05-17T03:50:56.874Z,13.40
2018-05-17T03:53:24.436Z,13.40
2018-05-17T03:55:51.989Z,13.40
2018-05-17T03:58:19.502Z,13.40
2018-05-17T04:00:58.747Z,13.40
2018-05-17T04:03:38.247Z,13.30
2018-05-17T04:06:17.496Z,13.40
2018-05-17T04:08:45.038Z,13.30
2018-05-17T04:11:12.553Z,13.40
2018-05-17T04:13:40.115Z,13.30
2018-05-17T04:16:07.664Z,13.30
2018-05-17T04:18:35.208Z,13.30
2018-05-17T04:21:03.527Z,13.40
2018-05-17T04:23:31.050Z,13.40
2018-05-17T04:25:58.563Z,13.40
2018-05-17T04:28:26.118Z,13.40
2018-05-17T04:30:53.639Z,13.40
2018-05-17T04:33:21.184Z,13.30
2018-05-17T04:35:49.492Z,13.30
2018-05-17T04:38:17.000Z,13.30
2018-05-17T04:40:44.545Z,13.30
2018-05-17T04:43:12.115Z,13.30
2018-05-17T04:45:39.701Z,13.20
2018-05-17T04:48:07.271Z,13.20
2018-05-17T04:50:34.792Z,13.10
2018-05-17T04:53:02.310Z,13.10
2018-05-17T04:55:29.826Z,13.10
2018-05-17T04:57:57.354Z,13.00
2018-05-17T05:00:24.918Z,13.00
2018-05-17T05:02:52.538Z,13.00
2018-05-17T05:05:20.007Z,13.00
2018-05-17T05:07:47.535Z,12.90
2018-05-17T05:10:15.073Z,12.90
2018-05-17T05:12:42.588Z,12.90
2018-05-17T05:15:10.102Z,12.90
2018-05-17T05:17:37.634Z,12.80
2018-05-17T05:20:05.220Z,12.80
2018-05-17T05:22:32.742Z,12.90
2018-05-17T05:25:00.262Z,12.80
2018-05-17T05:27:27.787Z,12.80
2018-05-17T05:29:55.477Z,12.80
2018-05-17T05:32:23.766Z,12.80
2018-05-17T05:34:51.328Z,12.80
2018-05-17T05:37:19.616Z,12.80
2018-05-17T05:39:47.176Z,12.80
2018-05-17T05:42:14.696Z,12.80
2018-05-17T05:44:42.244Z,12.90
2018-05-17T05:47:09.797Z,12.90
2018-05-17T05:49:37.337Z,12.90
2018-05-17T05:52:04.887Z,12.80
2018-05-17T05:54:32.435Z,12.80
2018-05-17T05:56:59.976Z,12.90
2018-05-17T05:59:27.543Z,12.90
2018-05-17T06:01:55.077Z,12.80
2018-05-17T06:04:22.627Z,12.90
2018-05-17T06:06:50.204Z,12.90
2018-05-17T06:09:17.759Z,12.90
2018-05-17T06:11:45.287Z,12.90
2018-05-17T06:14:12.810Z,12.80
2018-05-17T06:16:40.342Z,12.80
2018-05-17T06:19:07.890Z,12.80
2018-05-17T06:21:35.436Z,12.80
2018-05-17T06:24:02.947Z,12.80
2018-05-17T06:26:30.496Z,12.80
2018-05-17T06:28:58.029Z,12.70
2018-05-17T06:31:25.594Z,12.70
2018-05-17T06:33:53.126Z,12.70
2018-05-17T06:36:20.648Z,12.70
2018-05-17T06:38:48.187Z,12.70
2018-05-17T06:41:15.736Z,12.80
2018-05-17T06:43:43.267Z,12.80
2018-05-17T06:46:10.804Z,12.80
2018-05-17T06:48:38.366Z,12.80
2018-05-17T06:51:05.902Z,12.80
2018-05-17T06:53:33.443Z,12.70
2018-05-17T06:56:00.968Z,12.80
2018-05-17T06:58:28.495Z,12.80
2018-05-17T07:00:56.866Z,12.70
2018-05-17T07:03:24.361Z,12.70
2018-05-17T07:05:51.911Z,12.70
2018-05-17T07:08:19.465Z,12.70
2018-05-17T07:10:47.008Z,12.70
2018-05-17T07:13:15.354Z,12.60
2018-05-17T07:15:42.877Z,12.60
2018-05-17T07:18:10.539Z,12.60
2018-05-17T07:20:37.954Z,12.60
2018-05-17T07:23:05.504Z,12.70
2018-05-17T07:25:33.837Z,12.70
2018-05-17T07:28:01.410Z,12.70
2018-05-17T07:30:28.972Z,12.60
2018-05-17T07:32:56.496Z,12.60
2018-05-17T07:35:24.017Z,12.60
2018-05-17T07:37:51.581Z,12.70
2018-05-17T07:40:19.911Z,12.70
2018-05-17T07:42:47.469Z,12.70
2018-05-17T07:45:15.038Z,12.80
2018-05-17T07:47:42.625Z,12.90
2018-05-17T07:50:10.165Z,12.90
2018-05-17T07:52:37.694Z,12.90
2018-05-17T07:55:05.236Z,13.00
2018-05-17T07:57:32.757Z,13.10
2018-05-17T08:00:01.104Z,13.00
2018-05-17T08:02:28.664Z,13.00
2018-05-17T08:04:56.194Z,13.00
2018-05-17T08:07:24.479Z,13.30
2018-05-17T08:09:52.028Z,13.30
2018-05-17T08:12:19.520Z,13.60
2018-05-17T08:14:47.000Z,13.60
2018-05-17T08:17:14.518Z,13.70
2018-05-17T08:19:42.031Z,13.60
2018-05-17T08:22:09.548Z,13.50
2018-05-17T08:24:37.065Z,13.40
2018-05-17T08:27:05.371Z,13.50
2018-05-17T08:29:32.904Z,13.50
2018-05-17T08:32:00.453Z,13.40
2018-05-17T08:34:28.773Z,13.50
2018-05-17T08:36:56.318Z,13.50
2018-05-17T08:39:23.879Z,13.60
2018-05-17T08:41:52.129Z,13.70
2018-05-17T08:44:20.411Z,13.80
2018-05-17T08:46:48.691Z,13.80
2018-05-17T08:49:16.999Z,13.70
2018-05-17T08:51:44.553Z,13.70
2018-05-17T08:54:12.117Z,13.90
2018-05-17T08:56:39.671Z,14.00
2018-05-17T08:59:07.186Z,14.00
2018-05-17T09:01:35.483Z,14.00
2018-05-17T09:04:03.098Z,14.00
2018-05-17T09:06:30.598Z,14.00
2018-05-17T09:08:58.150Z,14.20
2018-05-17T09:11:25.707Z,14.20
2018-05-17T09:13:54.076Z,14.10
2018-05-17T09:16:21.547Z,14.00
2018-05-17T09:18:49.860Z,13.80
2018-05-17T09:21:17.382Z,13.80
2018-05-17T09:23:44.905Z,13.80
2018-05-17T09:26:12.443Z,13.80
2018-05-17T09:28:39.958Z,13.80
2018-05-17T09:31:08.287Z,13.90
2018-05-17T09:33:35.839Z,13.90
2018-05-17T09:36:03.392Z,14.10
2018-05-17T09:38:30.904Z,14.10
2018-05-17T09:40:59.209Z,14.10
2018-05-17T09:43:26.736Z,14.10
2018-05-17T09:45:54.259Z,14.10
2018-05-17T09:48:21.800Z,14.10
2018-05-17T09:50:49.373Z,14.20
2018-05-17T09:53:16.894Z,14.40
2018-05-17T09:55:44.409Z,14.60
2018-05-17T09:58:11.942Z,14.70
2018-05-17T10:00:45.203Z,14.70
2018-05-17T10:03:12.745Z,14.80
2018-05-17T10:05:40.308Z,14.70
2018-05-17T10:08:08.635Z,14.80
2018-05-17T10:10:36.152Z,14.80
2018-05-17T10:13:03.717Z,14.70
2018-05-17T10:15:31.278Z,14.70
2018-05-17T10:17:58.800Z,14.70
2018-05-17T10:20:26.329Z,14.80
2018-05-17T10:22:53.847Z,14.90
2018-05-17T10:25:21.371Z,15.10
2018-05-17T10:27:48.921Z,15.10
2018-05-17T10:30:16.444Z,15.30
2018-05-17T10:32:43.987Z,15.40
2018-05-17T10:35:11.541Z,15.30
2018-05-17T10:37:39.069Z,15.50
2018-05-17T10:40:06.612Z,15.80
2018-05-17T10:42:34.123Z,15.60
2018-05-17T10:45:02.228Z,15.60
2018-05-17T10:47:29.781Z,15.60
2018-05-17T10:49:57.305Z,15.70
2018-05-17T10:52:24.850Z,15.60
2018-05-17T10:54:53.138Z,16.00
2018-05-17T10:57:21.457Z,16.10
2018-05-17T10:59:49.019Z,16.10
2018-05-17T11:02:16.534Z,16.20
2018-05-17T11:04:44.867Z,15.70
2018-05-17T11:07:12.389Z,15.70
2018-05-17T11:09:39.911Z,15.80
2018-05-17T11:12:08.238Z,15.80
2018-05-17T11:14:35.810Z,15.70
2018-05-17T11:17:03.347Z,15.90
2018-05-17T11:19:30.876Z,15.80
2018-05-17T11:21:58.953Z,15.80
2018-05-17T11:24:26.462Z,15.80
2018-05-17T11:26:54.022Z,16.00
2018-05-17T11:29:21.576Z,16.30
2018-05-17T11:31:49.096Z,16.50
2018-05-17T11:34:16.650Z,16.40
2018-05-17T11:36:44.170Z,16.50
2018-05-17T11:39:11.679Z,16.50
2018-05-17T11:41:39.199Z,16.40
2018-05-17T11:44:06.719Z,16.30
2018-05-17T11:46:35.044Z,16.40
2018-05-17T11:49:03.360Z,16.40
2018-05-17T11:51:30.872Z,16.40
2018-05-17T11:53:58.474Z,16.60
2018-05-17T11:56:26.008Z,16.50
2018-05-17T11:58:53.533Z,16.30
2018-05-17T12:01:21.044Z,16.40
2018-05-17T12:03:48.596Z,16.40
2018-05-17T12:06:16.164Z,16.40
2018-05-17T12:08:43.722Z,16.40
2018-05-17T12:11:11.292Z,16.60
2018-05-17T12:13:38.826Z,16.40
2018-05-17T12:16:06.384Z,16.40
2018-05-17T12:18:33.931Z,16.40
2018-05-17T12:21:01.483Z,16.50
2018-05-17T12:23:29.771Z,16.30
2018-05-17T12:25:58.081Z,16.30
2018-05-17T12:28:25.647Z,16.30
2018-05-17T12:30:53.163Z,16.30
2018-05-17T12:33:21.453Z,16.40
2018-05-17T12:35:49.004Z,16.40
2018-05-17T12:38:16.550Z,16.70
2018-05-17T12:40:44.835Z,16.90
2018-05-17T12:43:13.142Z,17.00
2018-05-17T12:45:40.675Z,17.00
2018-05-17T12:48:08.225Z,17.20
2018-05-17T12:50:36.520Z,17.40
2018-05-17T12:53:04.081Z,17.40
2018-05-17T12:55:31.656Z,17.00
2018-05-17T12:57:59.179Z,17.00
2018-05-17T13:00:27.498Z,16.70
2018-05-17T13:02:55.019Z,16.70
2018-05-17T13:05:24.200Z,16.40
2018-05-17T13:07:51.758Z,16.30
2018-05-17T13:10:20.051Z,16.20
2018-05-17T13:12:48.351Z,16.30
2018-05-17T13:15:15.916Z,16.30
2018-05-17T13:17:43.458Z,16.30
2018-05-17T13:20:10.971Z,16.40
2018-05-17T13:22:38.496Z,16.30
2018-05-17T13:25:06.043Z,16.20
2018-05-17T13:27:33.588Z,16.20
2018-05-17T13:30:01.122Z,16.30
2018-05-17T13:32:28.667Z,16.30
2018-05-17T13:34:56.209Z,16.20
2018-05-17T13:37:23.750Z,16.10
2018-05-17T13:39:51.281Z,16.10
2018-05-17T13:42:18.834Z,16.10
2018-05-17T13:44:46.420Z,16.00
2018-05-17T13:47:14.562Z,16.00
2018-05-17T13:49:42.110Z,16.00
2018-05-17T13:52:10.543Z,16.10
2018-05-17T13:54:38.075Z,16.10
2018-05-17T13:57:05.615Z,16.10
2018-05-17T13:59:33.156Z,16.10
2018-05-17T14:02:00.719Z,16.10
2018-05-17T14:04:28.268Z,16.20
2018-05-17T14:06:56.578Z,16.10
2018-05-17T14:09:24.899Z,16.10
2018-05-17T14:11:52.479Z,16.10
2018-05-17T14:14:20.041Z,16.20
2018-05-17T14:16:49.107Z,16.10
2018-05-17T14:19:16.668Z,16.10
2018-05-17T14:21:44.221Z,16.20
2018-05-17T14:24:11.740Z,16.20
2018-05-17T14:26:39.393Z,16.20
2018-05-17T14:29:06.918Z,16.20
2018-05-17T14:31:34.492Z,16.30
2018-05-17T14:34:02.064Z,16.20
2018-05-17T14:36:29.606Z,16.30
2018-05-17T14:38:57.151Z,16.30
2018-05-17T14:41:24.749Z,16.30
2018-05-17T14:43:52.328Z,16.40
2018-05-17T14:46:19.862Z,16.50
2018-05-17T14:48:47.444Z,16.60
2018-05-17T14:51:14.992Z,16.60
2018-05-17T14:53:42.578Z,16.60
2018-05-17T14:56:10.142Z,16.70
2018-05-17T14:58:37.692Z,16.80
2018-05-17T15:01:05.236Z,16.90
2018-05-17T15:03:32.804Z,17.00
2018-05-17T15:06:00.363Z,17.10
2018-05-17T15:08:27.916Z,17.20
2018-05-17T15:10:56.201Z,17.30
2018-05-17T15:13:23.721Z,17.30
2018-05-17T15:15:51.233Z,17.30
2018-05-17T15:18:18.792Z,17.40
2018-05-17T15:20:46.338Z,17.50
2018-05-17T15:23:13.901Z,17.60
2018-05-17T15:25:41.452Z,17.70
2018-05-17T15:28:09.015Z,17.70
2018-05-17T15:30:37.348Z,17.80
2018-05-17T15:33:05.691Z,17.90
2018-05-17T15:35:33.257Z,17.90
2018-05-17T15:38:00.791Z,17.90
2018-05-17T15:40:28.348Z,17.90
2018-05-17T15:42:55.887Z,18.00
2018-05-17T15:45:24.187Z,18.00
2018-05-17T15:47:51.768Z,18.00
2018-05-17T15:50:19.317Z,18.00
2018-05-17T15:52:46.884Z,18.00
2018-05-17T15:55:14.475Z,17.90
2018-05-17T15:57:42.033Z,17.80
2018-05-17T16:00:09.594Z,17.70
2018-05-17T16:02:37.158Z,17.70
2018-05-17T16:05:04.707Z,17.70
2018-05-17T16:07:32.261Z,17.60
2018-05-17T16:09:59.809Z,17.60
2018-05-17T16:12:27.382Z,17.60
2018-05-17T16:14:55.037Z,17.60
2018-05-17T16:17:22.499Z,17.60
2018-05-17T16:19:50.091Z,17.60
2018-05-17T16:22:18.387Z,17.60
2018-05-17T16:24:45.966Z,17.60
2018-05-17T16:27:13.537Z,17.70
2018-05-17T16:29:41.099Z,17.70
2018-05-17T16:32:08.623Z,17.70
2018-05-17T16:34:36.137Z,17.70
2018-05-17T16:37:03.707Z,17.80
2018-05-17T16:39:31.270Z,17.80
2018-05-17T16:41:58.827Z,17.80
2018-05-17T16:44:26.356Z,17.70
2018-05-17T16:46:53.943Z,17.70
2018-05-17T16:49:21.500Z,17.70
2018-05-17T16:51:49.052Z,17.60
2018-05-17T16:54:16.657Z,17.60
2018-05-17T16:56:44.181Z,17.70
2018-05-17T16:59:11.701Z,17.70
2018-05-17T17:01:39.252Z,17.60
2018-05-17T17:04:06.806Z,17.50
2018-05-17T17:06:34.340Z,17.40
2018-05-17T17:09:02.634Z,17.40
2018-05-17T17:11:30.183Z,17.40
2018-05-17T17:13:57.719Z,17.30
2018-05-17T17:16:25.268Z,17.30
2018-05-17T17:18:52.821Z,17.30
2018-05-17T17:21:20.381Z,17.30
2018-05-17T17:23:47.963Z,17.30
2018-05-17T17:26:15.531Z,17.20
2018-05-17T17:28:43.826Z,17.20
2018-05-17T17:31:11.369Z,17.20
2018-05-17T17:33:38.910Z,17.30
2018-05-17T17:36:07.212Z,17.20
2018-05-17T17:38:34.781Z,17.10
2018-05-17T17:41:04.264Z,17.10
2018-05-17T17:43:31.843Z,17.20
2018-05-17T17:45:59.417Z,17.30
2018-05-17T17:48:26.962Z,17.40
2018-05-17T17:50:54.532Z,17.40
2018-05-17T17:53:22.043Z,17.40
2018-05-17T17:55:49.601Z,17.50
2018-05-17T17:58:17.145Z,17.50
2018-05-17T18:00:44.701Z,17.40
2018-05-17T18:03:12.267Z,17.50
2018-05-17T18:05:39.800Z,17.60
2018-05-17T18:08:07.369Z,17.50
2018-05-17T18:10:34.918Z,17.40
2018-05-17T18:13:02.439Z,17.40
2018-05-17T18:15:31.227Z,17.20
2018-05-17T18:17:58.801Z,17.20
2018-05-17T18:20:26.330Z,17.20
2018-05-17T18:22:53.865Z,17.10
2018-05-17T18:25:21.392Z,17.00
2018-05-17T18:27:48.937Z,17.00
2018-05-17T18:30:16.508Z,17.00
2018-05-17T18:32:44.080Z,16.90
2018-05-17T18:35:11.644Z,16.80
2018-05-17T18:37:39.201Z,16.90
2018-05-17T18:40:06.767Z,16.90
2018-05-17T18:42:34.316Z,16.80
2018-05-17T18:45:01.846Z,16.70
2018-05-17T18:47:29.422Z,16.70
2018-05-17T18:49:56.962Z,16.50
2018-05-17T18:52:24.548Z,16.50
2018-05-17T18:54:52.072Z,16.40
2018-05-17T18:57:19.636Z,16.20
2018-05-17T18:59:47.199Z,16.10
2018-05-17T19:02:14.772Z,16.00
2018-05-17T19:04:42.360Z,16.00
2018-05-17T19:07:09.943Z,15.90
2018-05-17T19:09:37.552Z,15.90
2018-05-17T19:12:05.181Z,15.90
2018-05-17T19:14:33.476Z,15.70
2018-05-17T19:17:01.044Z,15.70
2018-05-17T19:19:28.577Z,15.70
2018-05-17T19:21:56.864Z,15.60
2018-05-17T19:24:25.140Z,15.60
2018-05-17T19:26:52.677Z,15.60
2018-05-17T19:29:20.307Z,15.60
2018-05-17T19:31:47.865Z,15.50
2018-05-17T19:34:15.407Z,15.40
2018-05-17T19:36:42.960Z,15.40
2018-05-17T19:39:10.491Z,15.30
2018-05-17T19:41:38.838Z,15.30
2018-05-17T19:44:06.359Z,15.30
2018-05-17T19:46:33.935Z,15.20
2018-05-17T19:49:01.549Z,15.20
2018-05-17T19:51:29.133Z,15.10
2018-05-17T19:53:56.659Z,15.00
2018-05-17T19:56:24.975Z,14.90
2018-05-17T19:58:52.569Z,14.80
2018-05-17T20:01:20.095Z,14.70
2018-05-17T20:03:47.645Z,14.60
2018-05-17T20:06:15.214Z,14.70
2018-05-17T20:08:42.740Z,14.60
2018-05-17T20:11:10.309Z,14.50
2018-05-17T20:13:37.854Z,14.30
2018-05-17T20:16:06.169Z,14.30
2018-05-17T20:18:33.685Z,14.30
2018-05-17T20:21:02.012Z,14.40
2018-05-17T20:23:29.548Z,14.40
2018-05-17T20:25:57.066Z,14.50
2018-05-17T20:28:24.647Z,14.40
2018-05-17T20:30:52.161Z,14.20
2018-05-17T20:33:20.439Z,14.00
2018-05-17T20:35:47.992Z,14.00
2018-05-17T20:38:15.542Z,14.00
2018-05-17T20:40:43.055Z,14.00
2018-05-17T20:43:11.380Z,14.00
2018-05-17T20:45:38.936Z,14.00
2018-05-17T20:48:06.503Z,13.90
2018-05-17T20:50:34.029Z,13.90
2018-05-17T20:53:01.560Z,13.90
2018-05-17T20:55:29.844Z,14.00
2018-05-17T20:57:58.126Z,14.00
2018-05-17T21:00:26.515Z,13.90
2018-05-17T21:02:53.989Z,13.90
2018-05-17T21:05:22.327Z,13.80
2018-05-17T21:07:49.875Z,13.60
2018-05-17T21:10:17.418Z,13.30
2018-05-17T21:12:45.003Z,13.30
2018-05-17T21:15:12.493Z,13.30
2018-05-17T21:17:40.031Z,13.40
2018-05-17T21:20:07.571Z,13.20
2018-05-17T21:22:35.096Z,13.20
2018-05-17T21:25:02.661Z,13.10
2018-05-17T21:27:30.213Z,12.80
2018-05-17T21:29:57.756Z,12.80
2018-05-17T21:32:26.075Z,12.60
2018-05-17T21:34:53.604Z,12.60
2018-05-17T21:37:21.165Z,12.70
2018-05-17T21:39:48.695Z,12.60
2018-05-17T21:42:16.246Z,12.50
2018-05-17T21:44:43.770Z,12.50
2018-05-17T21:47:11.280Z,12.40
2018-05-17T21:49:40.601Z,12.70
2018-05-17T21:52:08.157Z,12.70
2018-05-17T21:54:35.723Z,12.60
2018-05-17T21:57:03.295Z,12.60
2018-05-17T21:59:30.814Z,12.50
2018-05-17T22:01:58.363Z,12.50
2018-05-17T22:04:25.887Z,11.90
2018-05-17T22:06:53.410Z,11.80
2018-05-17T22:09:21.704Z,11.90
2018-05-17T22:11:49.304Z,11.90
2018-05-17T22:14:16.914Z,11.90
2018-05-17T22:16:44.443Z,12.00
2018-05-17T22:19:11.974Z,12.00
2018-05-17T22:21:39.530Z,11.90
2018-05-17T22:24:07.092Z,11.90
2018-05-17T22:26:34.615Z,11.90
2018-05-17T22:29:02.136Z,11.80
2018-05-17T22:31:29.668Z,11.80
2018-05-17T22:33:57.221Z,11.80
2018-05-17T22:36:24.773Z,11.80
2018-05-17T22:38:52.304Z,11.70
2018-05-17T22:41:20.586Z,11.80
2018-05-17T22:43:48.132Z,11.70
2018-05-17T22:46:16.452Z,11.50
2018-05-17T22:48:43.982Z,11.50
2018-05-17T22:51:11.519Z,11.50
2018-05-17T22:53:39.048Z,11.40
2018-05-17T22:56:06.575Z,11.40
2018-05-17T22:58:34.132Z,11.40
2018-05-17T23:01:02.432Z,11.20
2018-05-17T23:03:29.959Z,11.20
2018-05-17T23:05:57.500Z,11.30
2018-05-17T23:08:25.055Z,11.30
2018-05-17T23:10:52.612Z,11.40
2018-05-17T23:13:20.175Z,11.30
2018-05-17T23:15:47.712Z,11.40
2018-05-17T23:18:15.269Z,11.30
2018-05-17T23:20:42.825Z,11.10
2018-05-17T23:23:10.410Z,11.10
2018-05-17T23:25:37.947Z,11.10
2018-05-17T23:28:05.476Z,11.10
2018-05-17T23:30:32.999Z,11.00
2018-05-17T23:33:00.509Z,10.90
2018-05-17T23:35:28.031Z,11.10
2018-05-17T23:37:55.538Z,11.20
2018-05-17T23:43:27.260Z,11.00
2018-05-17T23:45:54.803Z,10.70
2018-05-17T23:48:22.326Z,10.80
2018-05-17T23:50:49.842Z,10.70
2018-05-17T23:53:17.400Z,10.60
2018-05-17T23:55:44.965Z,10.70
2018-05-17T23:58:12.517Z,10.70
